• Join FlightAware (Why Join?)
  • Login
  • US Flag 
01:40PM EDT


 

Airport Tracker/Info


-or-


 

Live Flight TrackerFlight Track Log ✈ AAL270 ✈ 21-Apr-2013 ✈ PHNL - KLAX

Flight Track Log - Related Links

Times and Time Zones

All times are in EDT time to prevent confusion due to time zone crossing. See the AAL270 flight status page for this flight to view local times or setup timezone preferences in your user account.

Time Position Orientation Groundspeed Altitude Reporting Facility
EDT Latitude Longitude Course Direction KTS MPH feet Rate Location/Type
01:12PM 21.3167 -157.9000 75° East 180 207 1,200  Level Honolulu Center
01:13PM 21.2667 -157.8667 148° Southeast 240 276 2,900 2,100 Climbing Honolulu Center
01:14PM 21.2083 -157.5110 108° East  Level FlightAware Approximate
01:14PM 21.2333 -157.8000 118° Southeast 260 299 5,400  Level Honolulu Center
01:15PM 21.1790 -157.3741 100° East  Level FlightAware Approximate
01:15PM 21.2000 -157.7333 118° Southeast 280 322 7,700  Level Honolulu Center
01:16PM 21.1509 -157.2368 105° East  Level FlightAware Approximate
01:16PM 21.2167 -157.6500 78° East 290 334 9,900  Level Honolulu Center
01:17PM 21.1498 -157.1010 75° East  Level FlightAware Approximate
01:17PM 21.2167 -157.5500 90° East 330 380 11,300  Level Honolulu Center
01:18PM 21.2333 -157.4333 81° East 370 426 12,500 1,380 Climbing Honolulu Center
01:19PM 21.2500 -157.3167 81° East 400 460 14,200 1,620 Climbing Honolulu Center
01:20PM 21.2667 -157.2000 81° East 410 472 15,800 1,440 Climbing Honolulu Center
01:21PM 21.2833 -157.0667 82° East 430 495 17,100 1,320 Climbing Honolulu Center
01:22PM 21.3000 -156.9333 82° East 440 506 18,500 1,380 Climbing Honolulu Center
01:23PM 21.3167 -156.8167 81° East 450 518 19,900 1,380 Climbing Honolulu Center
01:24PM 21.3333 -156.6667 83° East 460 529 21,300 1,320 Climbing Honolulu Center
01:25PM 21.3500 -156.5333 82° East 460 529 22,600 1,080 Climbing Honolulu Center
01:26PM 21.3667 -156.4000 82° East 480 552 23,500 840 Climbing Honolulu Center
01:27PM 21.3833 -156.2500 83° East 490 564 24,300 900 Climbing Honolulu Center
01:28PM 21.4000 -156.1000 83° East 500 575 25,400 1,140 Climbing Honolulu Center
01:29PM 21.4167 -155.9500 83° East 500 575 26,600 1,080 Climbing Honolulu Center
01:30PM 21.4333 -155.8000 83° East 510 587 27,600 1,140 Climbing Honolulu Center
01:31PM 21.4500 -155.6500 83° East 510 587 28,900 1,200 Climbing Honolulu Center
01:32PM 21.4667 -155.5000 83° East 500 575 30,100 1,200 Climbing Honolulu Center
01:33PM 21.4833 -155.3500 83° East 500 575 31,400 1,380 Climbing Honolulu Center
01:34PM 21.5000 -155.2000 83° East 510 587 32,900 1,380 Climbing Honolulu Center
01:35PM 21.5167 -155.0500 83° East 500 575 34,300 1,140 Climbing Honolulu Center
01:36PM 21.5333 -154.9000 83° East 500 575 35,200 900 Climbing Honolulu Center
01:37PM 21.5500 -154.7500 83° East 510 587 36,200 900 Climbing Honolulu Center
01:38PM 21.5667 -154.6000 83° East 510 587 37,100 900 Climbing Honolulu Center
01:39PM 21.5833 -154.4500 83° East 510 587 38,000 420 Climbing Honolulu Center
01:40PM 21.5833 -154.3000 90° East 510 587 38,000  Level Honolulu Center
01:41PM 21.6000 -154.1333 84° East 520 598 38,000  Level Honolulu Center
01:42PM 21.6167 -154.0000 82° East 510 587 38,000  Level Honolulu Center
01:43PM 21.6333 -153.8500 83° East 520 598 38,000  Level Honolulu Center
01:44PM 21.6500 -153.6833 84° East 520 598 38,000  Level Honolulu Center
01:45PM 21.6667 -153.5333 83° East 520 598 38,000  Level Honolulu Center
01:46PM 21.6833 -153.3833 83° East 520 598 38,000  Level Honolulu Center
01:47PM 21.7000 -153.2167 84° East 530 610 38,000  Level Honolulu Center
01:49PM 21.7648 -153.0068 61° Northeast  Level FlightAware Approximate
01:56PM 22.2088 -152.1316 61° Northeast  Level FlightAware Approximate
01:57PM 22.2718 -152.0061 61° Northeast  Level FlightAware Approximate
01:58PM 22.3347 -151.8805 62° Northeast  Level FlightAware Approximate
01:59PM 22.3966 -151.7542 62° Northeast  Level FlightAware Approximate
02:00PM 22.4583 -151.6279 62° Northeast  Level FlightAware Approximate
02:00PM 22.3500 -151.8833 62° Northeast 522 601 38,000  Level Oakland Oceanic (ODAPS)
02:01PM 22.5200 -151.5013 62° Northeast  Level FlightAware Approximate
02:02PM 22.5815 -151.3747 62° Northeast  Level FlightAware Approximate
02:03PM 22.6430 -151.2480 62° Northeast  Level FlightAware Approximate
02:04PM 22.7043 -151.1211 62° Northeast  Level FlightAware Approximate
02:05PM 22.7655 -150.9942 62° Northeast  Level FlightAware Approximate
02:06PM 22.8267 -150.8672 62° Northeast  Level FlightAware Approximate
02:07PM 23.0241 -150.4932 63° Northeast 522 601 38,000  Level FlightAware Transoceanic
02:08PM 23.0908 -150.3534 63° Northeast 522 601 38,000  Level FlightAware Transoceanic
02:09PM 23.1574 -150.2135 63° Northeast 522 601 38,000  Level FlightAware Transoceanic
02:10PM 23.2239 -150.0735 63° Northeast 522 601 38,000  Level FlightAware Transoceanic
02:11PM 23.2903 -149.9333 63° Northeast 522 601 38,000  Level FlightAware Transoceanic
02:12PM 23.3566 -149.7930 63° Northeast 522 601 38,000  Level FlightAware Transoceanic
02:13PM 23.4227 -149.6525 63° Northeast 522 601 38,000  Level FlightAware Transoceanic
02:14PM 23.4887 -149.5119 63° Northeast 522 601 38,000  Level FlightAware Transoceanic
02:15PM 23.5545 -149.3711 63° Northeast 522 601 38,000  Level FlightAware Transoceanic
02:16PM 23.6203 -149.2302 63° Northeast 522 601 38,000  Level FlightAware Transoceanic
02:17PM 23.6859 -149.0892 63° Northeast 522 601 38,000  Level FlightAware Transoceanic
02:18PM 23.7514 -148.9480 63° Northeast 522 601 38,000  Level FlightAware Transoceanic
02:19PM 23.8167 -148.8067 63° Northeast 522 601 38,000  Level FlightAware Transoceanic
02:20PM 23.8820 -148.6653 63° Northeast 522 601 38,000  Level FlightAware Transoceanic
02:21PM 23.9471 -148.5237 63° Northeast 522 601 38,000  Level FlightAware Transoceanic
02:22PM 24.0120 -148.3819 63° Northeast 522 601 38,000  Level FlightAware Transoceanic
02:23PM 24.0769 -148.2400 63° Northeast 522 601 38,000  Level FlightAware Transoceanic
02:24PM 24.1416 -148.0980 64° Northeast 522 601 38,000  Level FlightAware Transoceanic
02:25PM 24.2062 -147.9558 64° Northeast 522 601 38,000  Level FlightAware Transoceanic
02:26PM 24.2706 -147.8135 64° Northeast 522 601 38,000  Level FlightAware Transoceanic
02:27PM 24.3349 -147.6711 64° Northeast 522 601 38,000  Level FlightAware Transoceanic
02:28PM 24.3991 -147.5285 64° Northeast 522 601 38,000  Level FlightAware Transoceanic
02:29PM 24.4631 -147.3857 64° Northeast 522 601 38,000  Level FlightAware Transoceanic
02:30PM 24.5271 -147.2428 64° Northeast 522 601 38,000  Level FlightAware Transoceanic
02:31PM 24.5908 -147.0998 64° Northeast 522 601 38,000  Level FlightAware Transoceanic
02:32PM 24.6545 -146.9566 64° Northeast 522 601 38,000  Level FlightAware Transoceanic
02:33PM 24.7180 -146.8133 64° Northeast 522 601 38,000  Level FlightAware Transoceanic
02:34PM 24.7813 -146.6698 64° Northeast 522 601 38,000  Level FlightAware Transoceanic
02:35PM 24.8446 -146.5262 64° Northeast 522 601 38,000  Level FlightAware Transoceanic
02:36PM 24.9077 -146.3824 64° Northeast 522 601 38,000  Level FlightAware Transoceanic
02:37PM 24.9706 -146.2385 64° Northeast 522 601 38,000  Level FlightAware Transoceanic
02:38PM 25.0334 -146.0944 64° Northeast 522 601 38,000  Level FlightAware Transoceanic
02:39PM 25.0961 -145.9502 64° Northeast 522 601 38,000  Level FlightAware Transoceanic
02:40PM 25.1587 -145.8058 64° Northeast 522 601 38,000  Level FlightAware Transoceanic
02:41PM 25.2211 -145.6613 65° Northeast 522 601 38,000  Level FlightAware Transoceanic
02:42PM 25.2833 -145.5167 65° Northeast 522 601 38,000  Level FlightAware Transoceanic
02:43PM 25.3425 -145.3780 65° Northeast 522 601 38,000  Level FlightAware Transoceanic
02:44PM 25.4016 -145.2392 65° Northeast 522 601 38,000  Level FlightAware Transoceanic
02:45PM 25.4605 -145.1003 65° Northeast 522 601 38,000  Level FlightAware Transoceanic
02:46PM 25.5193 -144.9612 65° Northeast 522 601 38,000  Level FlightAware Transoceanic
02:46PM 25.2833 -145.5167 65° Northeast 498 573 38,000  Level Oakland Oceanic (ODAPS)
02:47PM 25.5779 -144.8220 65° Northeast 522 601 38,000  Level FlightAware Transoceanic
02:48PM 25.6365 -144.6826 65° Northeast 522 601 38,000  Level FlightAware Transoceanic
02:49PM 25.6949 -144.5431 65° Northeast 522 601 38,000  Level FlightAware Transoceanic
02:50PM 25.7531 -144.4035 65° Northeast 522 601 38,000  Level FlightAware Transoceanic
02:51PM 25.8113 -144.2637 65° Northeast 522 601 38,000  Level FlightAware Transoceanic
02:52PM 25.8692 -144.1239 65° Northeast 498 573 38,000  Level FlightAware Transoceanic
02:53PM 25.9271 -143.9838 65° Northeast 498 573 38,000  Level FlightAware Transoceanic
02:54PM 25.9848 -143.8436 65° Northeast 498 573 38,000  Level FlightAware Transoceanic
02:55PM 26.0424 -143.7033 65° Northeast 498 573 38,000  Level FlightAware Transoceanic
02:56PM 26.0999 -143.5629 66° East 498 573 38,000  Level FlightAware Transoceanic
02:57PM 26.1572 -143.4223 66° East 498 573 38,000  Level FlightAware Transoceanic
02:58PM 26.2144 -143.2816 66° East 498 573 38,000  Level FlightAware Transoceanic
02:59PM 26.2714 -143.1407 66° East 498 573 38,000  Level FlightAware Transoceanic
03:00PM 26.3283 -142.9997 66° East 498 573 38,000  Level FlightAware Transoceanic
03:01PM 26.3851 -142.8586 66° East 498 573 38,000  Level FlightAware Transoceanic
03:02PM 26.4417 -142.7173 66° East 498 573 38,000  Level FlightAware Transoceanic
03:03PM 26.4982 -142.5759 66° East 498 573 38,000  Level FlightAware Transoceanic
03:04PM 26.5546 -142.4343 66° East 498 573 38,000  Level FlightAware Transoceanic
03:05PM 26.6108 -142.2926 66° East 498 573 38,000  Level FlightAware Transoceanic
03:06PM 26.6669 -142.1508 66° East 498 573 38,000  Level FlightAware Transoceanic
03:07PM 26.7228 -142.0088 66° East 498 573 38,000  Level FlightAware Transoceanic
03:08PM 26.7786 -141.8667 66° East 498 573 38,000  Level FlightAware Transoceanic
03:09PM 26.8342 -141.7245 66° East 498 573 38,000  Level FlightAware Transoceanic
03:10PM 26.8897 -141.5821 66° East 498 573 38,000  Level FlightAware Transoceanic
03:11PM 26.9451 -141.4395 66° East 498 573 38,000  Level FlightAware Transoceanic
03:12PM 27.0003 -141.2969 67° East 498 573 38,000  Level FlightAware Transoceanic
03:13PM 27.0554 -141.1541 67° East 498 573 38,000  Level FlightAware Transoceanic
03:14PM 27.1103 -141.0111 67° East 498 573 38,000  Level FlightAware Transoceanic
03:15PM 27.1651 -140.8680 67° East 498 573 38,000  Level FlightAware Transoceanic
03:16PM 27.2198 -140.7248 67° East 498 573 38,000  Level FlightAware Transoceanic
03:17PM 27.2743 -140.5814 67° East 498 573 38,000  Level FlightAware Transoceanic
03:18PM 27.3286 -140.4379 67° East 498 573 38,000  Level FlightAware Transoceanic
03:19PM 27.3828 -140.2943 67° East 498 573 38,000  Level FlightAware Transoceanic
03:20PM 27.4369 -140.1505 67° East 498 573 38,000  Level FlightAware Transoceanic
03:21PM 27.4908 -140.0065 67° East 498 573 38,000  Level FlightAware Transoceanic
03:22PM 27.5445 -139.8625 67° East 498 573 38,000  Level FlightAware Transoceanic
03:23PM 27.5982 -139.7182 67° East 498 573 38,000  Level FlightAware Transoceanic
03:24PM 27.6516 -139.5739 67° East 498 573 38,000  Level FlightAware Transoceanic
03:25PM 27.7049 -139.4294 67° East 498 573 38,000  Level FlightAware Transoceanic
03:26PM 27.7581 -139.2848 67° East 498 573 38,000  Level FlightAware Transoceanic
03:27PM 27.8111 -139.1400 68° East 498 573 38,000  Level FlightAware Transoceanic
03:28PM 27.8640 -138.9951 68° East 498 573 38,000  Level FlightAware Transoceanic
03:29PM 27.9167 -138.8500 68° East 498 573 38,000  Level FlightAware Transoceanic
03:30PM 27.9677 -138.7089 68° East 498 573 38,000  Level FlightAware Transoceanic
03:31PM 28.0186 -138.5677 68° East 498 573 38,000  Level FlightAware Transoceanic
03:32PM 28.0693 -138.4264 68° East 498 573 38,000  Level FlightAware Transoceanic
03:32PM 27.9167 -138.8500 68° East 495 570 38,000  Level Oakland Oceanic (ODAPS)
03:33PM 28.1199 -138.2849 68° East 498 573 38,000  Level FlightAware Transoceanic
03:34PM 28.1704 -138.1433 68° East 498 573 38,000  Level FlightAware Transoceanic
03:35PM 28.2207 -138.0016 68° East 498 573 38,000  Level FlightAware Transoceanic
03:36PM 28.2709 -137.8597 68° East 498 573 38,000  Level FlightAware Transoceanic
03:37PM 28.3209 -137.7177 68° East 498 573 38,000  Level FlightAware Transoceanic
03:38PM 28.3291 -137.6945 68° East 495 570 38,000  Level FlightAware Transoceanic
03:39PM 28.3799 -137.5494 68° East 495 570 38,000  Level FlightAware Transoceanic
03:40PM 28.4306 -137.4042 68° East 495 570 38,000  Level FlightAware Transoceanic
03:41PM 28.4812 -137.2589 68° East 495 570 38,000  Level FlightAware Transoceanic
03:42PM 28.5316 -137.1134 69° East 495 570 38,000  Level FlightAware Transoceanic
03:43PM 28.5818 -136.9678 69° East 495 570 38,000  Level FlightAware Transoceanic
03:44PM 28.6319 -136.8220 69° East 495 570 38,000  Level FlightAware Transoceanic
03:45PM 28.6818 -136.6761 69° East 495 570 38,000  Level FlightAware Transoceanic
03:46PM 28.7316 -136.5301 69° East 495 570 38,000  Level FlightAware Transoceanic
03:47PM 28.7812 -136.3839 69° East 495 570 38,000  Level FlightAware Transoceanic
03:48PM 28.8307 -136.2376 69° East 495 570 38,000  Level FlightAware Transoceanic
03:49PM 28.8800 -136.0912 69° East 495 570 38,000  Level FlightAware Transoceanic
03:50PM 28.9291 -135.9446 69° East 495 570 38,000  Level FlightAware Transoceanic
03:51PM 28.9781 -135.7979 69° East 495 570 38,000  Level FlightAware Transoceanic
03:52PM 29.0270 -135.6510 69° East 495 570 38,000  Level FlightAware Transoceanic
03:53PM 29.0756 -135.5040 69° East 495 570 38,000  Level FlightAware Transoceanic
03:54PM 29.1241 -135.3568 69° East 495 570 38,000  Level FlightAware Transoceanic
03:55PM 29.1725 -135.2095 69° East 495 570 38,000  Level FlightAware Transoceanic
03:56PM 29.2207 -135.0621 70° East 495 570 38,000  Level FlightAware Transoceanic
03:57PM 29.2687 -134.9146 70° East 495 570 38,000  Level FlightAware Transoceanic
03:58PM 29.3166 -134.7669 70° East 495 570 38,000  Level FlightAware Transoceanic
03:59PM 29.3643 -134.6190 70° East 495 570 38,000  Level FlightAware Transoceanic
04:00PM 29.4118 -134.4711 70° East 495 570 38,000  Level FlightAware Transoceanic
04:01PM 29.4592 -134.3229 70° East 495 570 38,000  Level FlightAware Transoceanic
04:02PM 29.5064 -134.1747 70° East 495 570 38,000  Level FlightAware Transoceanic
04:03PM 29.5534 -134.0263 70° East 495 570 38,000  Level FlightAware Transoceanic
04:04PM 29.6003 -133.8778 70° East 495 570 38,000  Level FlightAware Transoceanic
04:05PM 29.6470 -133.7291 70° East 495 570 38,000  Level FlightAware Transoceanic
04:06PM 29.6936 -133.5803 70° East 495 570 38,000  Level FlightAware Transoceanic
04:07PM 29.7399 -133.4313 70° East 495 570 38,000  Level FlightAware Transoceanic
04:08PM 29.7861 -133.2823 70° East 495 570 38,000  Level FlightAware Transoceanic
04:09PM 29.8322 -133.1330 70° East 495 570 38,000  Level FlightAware Transoceanic
04:10PM 29.8781 -132.9837 71° East 495 570 38,000  Level FlightAware Transoceanic
04:11PM 29.9238 -132.8342 71° East 495 570 38,000  Level FlightAware Transoceanic
04:12PM 29.9693 -132.6846 71° East 495 570 38,000  Level FlightAware Transoceanic
04:13PM 30.0147 -132.5348 71° East 495 570 38,000  Level FlightAware Transoceanic
04:14PM 30.0599 -132.3849 71° East 495 570 38,000  Level FlightAware Transoceanic
04:15PM 30.1049 -132.2349 71° East 495 570 38,000  Level FlightAware Transoceanic
04:16PM 30.1498 -132.0847 71° East 495 570 38,000  Level FlightAware Transoceanic
04:17PM 30.1945 -131.9344 71° East 495 570 38,000  Level FlightAware Transoceanic
04:18PM 30.2390 -131.7839 71° East 495 570 38,000  Level FlightAware Transoceanic
04:19PM 30.2833 -131.6333 71° East 495 570 38,000  Level FlightAware Transoceanic
04:20PM 30.3269 -131.4858 71° East 495 570 38,000  Level FlightAware Transoceanic
04:21PM 30.3703 -131.3381 71° East 495 570 38,000  Level FlightAware Transoceanic
04:22PM 30.4135 -131.1903 71° East 495 570 38,000  Level FlightAware Transoceanic
04:22PM 30.2833 -131.6333 71° East 485 558 38,000  Level Oakland Oceanic (ODAPS)
04:23PM 30.4566 -131.0424 71° East 495 570 38,000  Level FlightAware Transoceanic
04:24PM 30.4995 -130.8943 71° East 495 570 38,000  Level FlightAware Transoceanic
04:25PM 30.5422 -130.7461 72° East 495 570 38,000  Level FlightAware Transoceanic
04:26PM 30.5848 -130.5978 72° East 495 570 38,000  Level FlightAware Transoceanic
04:27PM 30.6272 -130.4494 72° East 495 570 38,000  Level FlightAware Transoceanic
04:28PM 30.6694 -130.3008 72° East 495 570 38,000  Level FlightAware Transoceanic
04:29PM 30.7114 -130.1521 72° East 485 558 38,000  Level FlightAware Transoceanic
04:30PM 30.7533 -130.0032 72° East 485 558 38,000  Level FlightAware Transoceanic
04:31PM 30.7950 -129.8543 72° East 485 558 38,000  Level FlightAware Transoceanic
04:32PM 30.8366 -129.7052 72° East 485 558 38,000  Level FlightAware Transoceanic
04:33PM 30.8780 -129.5559 72° East 485 558 38,000  Level FlightAware Transoceanic
04:34PM 30.9192 -129.4066 72° East 485 558 38,000  Level FlightAware Transoceanic
04:35PM 30.9602 -129.2571 72° East 485 558 38,000  Level FlightAware Transoceanic
04:36PM 31.0010 -129.1075 72° East 485 558 38,000  Level FlightAware Transoceanic
04:37PM 31.0417 -128.9577 72° East 485 558 38,000  Level FlightAware Transoceanic
04:38PM 31.0822 -128.8079 73° East 485 558 38,000  Level FlightAware Transoceanic
04:39PM 31.1226 -128.6579 73° East 485 558 38,000  Level FlightAware Transoceanic
04:40PM 31.1627 -128.5078 73° East 485 558 38,000  Level FlightAware Transoceanic
04:41PM 31.2027 -128.3575 73° East 485 558 38,000  Level FlightAware Transoceanic
04:42PM 31.2425 -128.2071 73° East 485 558 38,000  Level FlightAware Transoceanic
04:43PM 31.2822 -128.0566 73° East 485 558 38,000  Level FlightAware Transoceanic
04:44PM 31.3217 -127.9060 73° East 485 558 38,000  Level FlightAware Transoceanic
04:45PM 31.3609 -127.7552 73° East 485 558 38,000  Level FlightAware Transoceanic
04:46PM 31.4001 -127.6043 73° East 485 558 38,000  Level FlightAware Transoceanic
04:47PM 31.4390 -127.4533 73° East 485 558 38,000  Level FlightAware Transoceanic
04:48PM 31.4778 -127.3022 73° East 485 558 38,000  Level FlightAware Transoceanic
04:49PM 31.5163 -127.1509 73° East 485 558 38,000  Level FlightAware Transoceanic
04:50PM 31.5547 -126.9996 73° East 485 558 38,000  Level FlightAware Transoceanic
04:51PM 31.5930 -126.8481 74° East 485 558 38,000  Level FlightAware Transoceanic
04:52PM 31.6310 -126.6964 74° East 485 558 38,000  Level FlightAware Transoceanic
04:53PM 31.6689 -126.5447 74° East 485 558 38,000  Level FlightAware Transoceanic
04:54PM 31.7066 -126.3928 74° East 485 558 38,000  Level FlightAware Transoceanic
04:55PM 31.7441 -126.2408 74° East 485 558 38,000  Level FlightAware Transoceanic
04:56PM 31.7814 -126.0887 74° East 485 558 38,000  Level FlightAware Transoceanic
04:57PM 31.8185 -125.9364 74° East 485 558 38,000  Level FlightAware Transoceanic
04:58PM 31.8555 -125.7840 74° East 485 558 38,000  Level FlightAware Transoceanic
04:59PM 31.8923 -125.6316 74° East 485 558 38,000  Level FlightAware Transoceanic
05:00PM 31.9289 -125.4789 74° East 485 558 38,000  Level FlightAware Transoceanic
05:01PM 31.9653 -125.3262 74° East 485 558 38,000  Level FlightAware Transoceanic
05:02PM 32.0015 -125.1733 74° East 485 558 38,000  Level FlightAware Transoceanic
05:03PM 32.0376 -125.0204 75° East 485 558 38,000  Level FlightAware Transoceanic
05:04PM 32.0734 -124.8673 75° East 485 558 38,000  Level FlightAware Transoceanic
05:05PM 32.1091 -124.7141 75° East 485 558 38,000  Level FlightAware Transoceanic
05:06PM 32.1446 -124.5607 75° East 485 558 38,000  Level FlightAware Transoceanic
05:07PM 32.1799 -124.4073 75° East 485 558 38,000  Level FlightAware Transoceanic
05:08PM 32.2151 -124.2537 75° East 485 558 38,000  Level FlightAware Transoceanic
05:09PM 32.2500 -124.1000 77° East 485 558 38,000  Level FlightAware Transoceanic
05:10PM 32.2815 -123.9432 77° East 485 558 38,000  Level FlightAware Transoceanic
05:11PM 32.3129 -123.7862 77° East 485 558 38,000 -120 Level FlightAware Transoceanic
05:11PM 32.3006 -123.8178 68° East 492 566 37,900  Descending Los Angeles Center
05:12PM 32.3440 -123.6292 77° East 485 558 38,000  Climbing FlightAware Transoceanic
05:12PM 32.3328 -123.6614 76° East 490 564 37,900  Descending Los Angeles Center
05:13PM 32.3750 -123.4721 77° East 485 558 38,000  Climbing FlightAware Transoceanic
05:13PM 32.3683 -123.4700 78° East 492 566 37,900  Descending Los Angeles Center
05:14PM 32.4057 -123.3148 77° East 485 558 38,000  Climbing FlightAware Transoceanic
05:14PM 32.3961 -123.3097 78° East 495 570 37,900  Descending Los Angeles Center
05:15PM 32.4363 -123.1575 77° East 485 558 38,000  Climbing FlightAware Transoceanic
05:15PM 32.4256 -123.1492 78° East 497 572 37,900 -120 Descending Los Angeles Center
05:16PM 32.4858 -123.0122 68° East  Level Estimated
05:16PM 32.4558 -122.9928 77° East 495 570 37,900  Level Los Angeles Center
05:17PM 32.4869 -122.8358 77° East 493 567 37,900  Level Los Angeles Center
05:18PM 32.5164 -122.6794 77° East 490 564 38,000  Climbing Los Angeles Center
05:19PM 32.5503 -122.4903 78° East 490 564 37,900 -60 Descending Los Angeles Center
05:20PM 32.5789 -122.3317 78° East 491 565 37,900  Level Los Angeles Center
05:21PM 32.6086 -122.1742 77° East 492 566 38,000  Climbing Los Angeles Center
05:22PM 32.6397 -122.0208 76° East 489 563 38,000 -60 Level Los Angeles Center
05:23PM 32.6672 -121.8631 78° East 488 562 37,900  Descending Los Angeles Center
05:24PM 32.7019 -121.6722 78° East 494 568 38,000  Climbing Los Angeles Center
05:25PM 32.7275 -121.5094 79° East 501 577 37,900  Descending Los Angeles Center
05:26PM 32.7556 -121.3497 78° East 498 573 38,000  Climbing Los Angeles Center
05:27PM 32.7822 -121.1894 79° East 496 571 37,900 -60 Descending Los Angeles Center
05:28PM 32.8106 -121.0297 78° East 497 572 37,900  Level Los Angeles Center
05:29PM 32.8364 -120.8656 79° East 504 580 37,900 -480 Level Los Angeles Center
05:30PM 32.8686 -120.6711 79° East 503 579 37,000 -1,500 Descending Los Angeles Center
05:31PM 32.8958 -120.5097 79° East 501 577 34,900 -2,100 Descending Los Angeles Center
05:32PM 32.9219 -120.3519 79° East 493 567 32,700 -1,920 Descending Los Angeles Center
05:34PM 32.9472 -120.1975 79° East 483 556 31,000 -1,740 Descending Los Angeles Center
05:39PM 33.0590 -119.4340 79° East 404 465 21,600 -1,740 Descending FlightAware
05:40PM 33.0760 -119.3280 79° East 390 449 20,300 -1,620 Descending FlightAware
05:41PM 33.1020 -119.1560 80° East 394 453 18,200 -1,140 Descending FlightAware
05:42PM 33.1140 -119.0820 79° East 393 452 18,100 -120 Descending FlightAware
05:42PM 33.1240 -119.0090 81° East 393 452 18,100  Level FlightAware
05:43PM 33.1350 -118.9360 80° East 393 452 18,100 -2,760 Level FlightAware
05:44PM 33.1510 -118.8430 78° East 356 410 14,000 -2,940 Descending FlightAware
05:44PM 33.1600 -118.7840 80° East 356 410 14,000 -1,200 Level FlightAware
05:45PM 33.1770 -118.6760 79° East 364 419 12,300 -1,680 Descending FlightAware
05:46PM 33.2020 -118.6340 55° Northeast 343 395 11,900 -300 Descending FlightAware
05:46PM 33.2580 -118.5590 48° Northeast 341 392 12,000 60 Climbing FlightAware
05:47PM 33.3060 -118.4950 48° Northeast 347 399 12,000 -120 Level FlightAware
05:48PM 33.3580 -118.4230 49° Northeast 349 402 11,900  Descending FlightAware
05:49PM 33.3780 -118.3480 72° East 352 405 12,000 60 Climbing FlightAware
05:49PM 33.3890 -118.2720 80° East 352 405 12,000  Level FlightAware
05:50PM 33.4010 -118.1870 80° East 352 405 12,000 -180 Level FlightAware
05:51PM 33.4210 -118.1180 71° East 315 362 11,800 -600 Descending FlightAware
05:51PM 33.4370 -118.0980 46° Northeast 310 357 11,500 -1,440 Descending FlightAware
05:52PM 33.4830 -118.0580 36° Northeast 305 351 10,500 -1,500 Descending FlightAware
05:52PM 33.5160 -118.0300 35° Northeast 301 346 9,800 -1,200 Descending FlightAware
05:52PM 33.5330 -118.0170 33° Northeast 297 342 9,600 -1,080 Descending FlightAware
05:53PM 33.5650 -117.9940 31° Northeast 288 331 9,100 -1,200 Descending FlightAware
05:53PM 33.5820 -117.9870 19° North 282 325 8,800 -1,440 Descending FlightAware
05:53PM 33.6030 -117.9860 North 279 321 8,400 -1,620 Descending FlightAware
05:53PM 33.6210 -117.9880 355° North 282 325 8,000 -1,680 Descending FlightAware
05:54PM 33.6340 -117.9890 356° North 283 326 7,700 -1,380 Descending FlightAware
05:54PM 33.6720 -117.9990 348° North 279 321 7,100 -840 Descending FlightAware
05:55PM 33.7090 -118.0110 345° North 279 321 6,900 -180 Descending FlightAware
05:55PM 33.7300 -118.0180 345° North 282 325 7,000  Climbing FlightAware
05:55PM 33.7600 -118.0280 345° North 282 325 6,900 -180 Descending FlightAware
05:56PM 33.7790 -118.0340 345° North 268 308 6,900 120 Level FlightAware
05:56PM 33.8140 -118.0420 349° North 249 287 7,000  Climbing FlightAware
05:56PM 33.8260 -118.0430 356° North 248 285 6,900 -900 Descending FlightAware
05:57PM 33.8600 -118.0470 354° North 245 282 6,400 -900 Descending FlightAware
05:57PM 33.8910 -118.0510 354° North 240 276 6,000 -1,020 Descending FlightAware
05:58PM 33.9190 -118.0550 353° North 233 268 5,500 -1,200 Descending FlightAware
05:58PM 33.9510 -118.0620 350° North 231 266 4,900 -1,200 Descending FlightAware
05:58PM 33.9590 -118.0710 317° Northwest 226 260 4,700 -1,200 Descending FlightAware
05:59PM 33.9630 -118.0880 286° West 224 258 4,400 -1,080 Descending FlightAware
05:59PM 33.9580 -118.1260 261° West 215 247 3,900 -900 Descending FlightAware
06:00PM 33.9530 -118.1610 260° West 205 236 3,500 -840 Descending FlightAware
06:00PM 33.9510 -118.1830 264° West 203 234 3,200 -1,140 Descending FlightAware
06:00PM 33.9470 -118.2200 263° West 198 228 2,500 -1,200 Descending FlightAware
06:01PM 33.9450 -118.2410 263° West 199 229 2,000 -1,080 Descending FlightAware
06:01PM 33.9430 -118.2650 264° West 187 215 1,600 -900 Descending FlightAware
06:02PM 33.9410 -118.2770 259° West 176 203 1,400 -300 Descending FlightAware
06:02PM 33.9390 -118.2980 263° West 176 203 1,400 -840 Level FlightAware
06:03PM 33.9360 -118.3270 263° West 141 162 600 -1,140 Descending FlightAware
06:03PM 33.9340 -118.3490 264° West 138 159 300 -840 Descending FlightAware
06:03PM 33.9330 -118.3530 253° West 137 158 200 -1,200 Descending FlightAware